Aeroporto :
LOGIN :

Iscrizione | Disclaimer

   EN    FR    IT 

 










Sommario :    VFR   VFR Marginale   IFR   IFR Intensivo   IFR Molto Intensivo
Visibilità : 
Base nubi : 
>= 8 km
>= 3000ft
5 / 8 km
1000 / 3000 ft
1500m / 5 km
500 / 1000 ft
800 / 1500m
200 / 500 ft
< 800m
< 200 ft
Simboli :   Temporali  Nebbia  Neve Forte  Precipitazioni Forti  Vento > 20 kt
SIGMETs :   Varie  Temporali  Ghiacco  Turbolenza  Onda orograficha  Ceneri Vulcaniche






- Altitudine del aeroporto : 659 ft
- Codice IATA : LGG


EBLG - Liège

ULTIMO METAR :
  • 162120Z 08005KT CAVOK 23/14 Q1010 NOSIG

METARs OBSOLETI :
  • 162050Z 03003KT CAVOK 23/15 Q1010 NOSIG
  • 162020Z 03004KT 360V160 CAVOK 24/14 Q1010 NOSIG
  • 161950Z 05004KT 020V100 CAVOK 24/14 Q1010 NOSIG
  • 161920Z 02002KT CAVOK 24/14 Q1010 NOSIG
  • 161850Z 04004KT CAVOK 23/16 Q1009 NOSIG
  • 161820Z 03004KT CAVOK 24/15 Q1009 NOSIG

TAF TAF EBLG
Valido dal 16 a 18 ore il 18 a 00 ore UTC


161710Z 1618/1724 VRB03KT CAVOK
TEMPO 1623/1706 3500 SHRA TSRA
PROB40
TEMPO 1623/1706 VRB15G30KT 2000 +SHRA +TSRA BKN007 BKN040CB
PROB30
TEMPO 1706/1718 4000 SHRA TSRA



MetMap, La meteo Aeronautica in un colpo d'occhio ! - Copyright ORBIFLY Dicembre 2007 - Disclaimer

ORBIFLY MET'MAP TEAM :

Programmazione e sviluppo : Alexandra Zaïnal
Concezione : Baudouin d'Aumeries
Supporto tecnico e logistico : Manuel Goepfert
Aiuto : Marc-Olivier Méhu
Aiuto per la traduzione : Arnaldo La Scala




FONTI E CREDITI :

   NOAA